createdAt,value
2018-02-05T00:00:39.334Z,-0.60
2018-02-05T00:03:06.773Z,-0.60
2018-02-05T00:05:34.259Z,-0.50
2018-02-05T00:08:02.649Z,-0.50
2018-02-05T00:10:30.133Z,-0.50
2018-02-05T00:12:57.577Z,-0.50
2018-02-05T00:15:25.056Z,-0.50
2018-02-05T00:17:52.517Z,-0.40
2018-02-05T00:20:20.081Z,-0.30
2018-02-05T00:22:48.332Z,-0.20
2018-02-05T00:25:16.748Z,-0.20
2018-02-05T00:27:44.258Z,-0.20
2018-02-05T00:30:11.763Z,-0.20
2018-02-05T00:32:40.020Z,-0.30
2018-02-05T00:35:07.501Z,-0.30
2018-02-05T00:37:35.715Z,-0.10
2018-02-05T00:40:03.173Z,0.00
2018-02-05T00:42:30.665Z,0.00
2018-02-05T00:45:05.876Z,0.00
2018-02-05T00:47:33.329Z,-0.10
2018-02-05T00:50:02.315Z,-0.20
2018-02-05T00:52:29.752Z,-0.20
2018-02-05T00:54:57.225Z,-0.50
2018-02-05T00:57:24.712Z,-0.70
2018-02-05T00:59:52.178Z,-0.60
2018-02-05T01:02:20.343Z,-0.70
2018-02-05T01:04:47.866Z,-0.80
2018-02-05T01:07:15.321Z,-1.00
2018-02-05T01:09:42.804Z,-0.90
2018-02-05T01:12:10.282Z,-0.90
2018-02-05T01:14:37.753Z,-0.90
2018-02-05T01:17:09.306Z,-0.90
2018-02-05T01:19:36.773Z,-1.00
2018-02-05T01:22:04.242Z,-1.00
2018-02-05T01:24:31.720Z,-1.00
2018-02-05T01:26:59.177Z,-0.80
2018-02-05T01:29:26.691Z,-0.80
2018-02-05T01:31:57.712Z,-0.70
2018-02-05T01:34:25.196Z,-0.50
2018-02-05T01:36:53.592Z,-0.60
2018-02-05T01:39:21.080Z,-0.80
2018-02-05T01:41:48.584Z,-0.90
2018-02-05T01:44:16.024Z,-1.10
2018-02-05T01:46:46.553Z,-1.10
2018-02-05T01:49:14.009Z,-1.10
2018-02-05T01:51:41.509Z,-1.20
2018-02-05T01:54:08.969Z,-1.20
2018-02-05T01:56:36.440Z,-1.20
2018-02-05T01:59:03.920Z,-1.30
2018-02-05T02:01:32.288Z,-1.30
2018-02-05T02:03:59.773Z,-1.30
2018-02-05T02:06:27.332Z,-1.30
2018-02-05T02:08:54.888Z,-1.40
2018-02-05T02:11:22.364Z,-1.40
2018-02-05T02:13:49.849Z,-1.50
2018-02-05T02:16:21.178Z,-1.60
2018-02-05T02:18:48.642Z,-1.60
2018-02-05T02:21:16.333Z,-1.60
2018-02-05T02:23:43.797Z,-1.60
2018-02-05T02:26:11.288Z,-1.60
2018-02-05T02:28:38.728Z,-1.60
2018-02-05T02:31:06.224Z,-1.60
2018-02-05T02:33:33.733Z,-1.60
2018-02-05T02:36:01.285Z,-1.70
2018-02-05T02:38:29.712Z,-1.70
2018-02-05T02:40:57.315Z,-1.80
2018-02-05T02:43:24.819Z,-1.80
2018-02-05T02:45:52.265Z,-1.80
2018-02-05T02:48:19.714Z,-1.90
2018-02-05T02:50:47.206Z,-1.90
2018-02-05T02:53:14.654Z,-2.00
2018-02-05T02:55:42.302Z,-1.90
2018-02-05T02:58:09.777Z,-2.00
2018-02-05T03:00:37.372Z,-2.00
2018-02-05T03:03:04.836Z,-2.00
2018-02-05T03:05:32.779Z,-2.00
2018-02-05T03:08:00.284Z,-2.00
2018-02-05T03:10:27.737Z,-2.00
2018-02-05T03:12:55.238Z,-2.00
2018-02-05T03:15:22.714Z,-2.00
2018-02-05T03:17:51.860Z,-2.10
2018-02-05T03:20:19.885Z,-2.10
2018-02-05T03:22:47.372Z,-2.10
2018-02-05T03:25:14.834Z,-2.10
2018-02-05T03:27:42.313Z,-2.10
2018-02-05T03:30:09.846Z,-2.10
2018-02-05T03:32:37.377Z,-2.10
2018-02-05T03:35:06.514Z,-2.20
2018-02-05T03:37:33.960Z,-2.20
2018-02-05T03:40:01.469Z,-2.20
2018-02-05T03:42:29.033Z,-2.20
2018-02-05T03:44:57.281Z,-2.20
2018-02-05T03:47:24.761Z,-2.20
2018-02-05T03:49:52.240Z,-2.30
2018-02-05T03:52:20.452Z,-2.30
2018-02-05T03:54:47.937Z,-2.30
2018-02-05T03:57:15.443Z,-2.30
2018-02-05T03:59:44.590Z,-2.30
2018-02-05T04:02:12.052Z,-2.30
2018-02-05T04:04:39.522Z,-2.30
2018-02-05T04:07:12.740Z,-2.30
2018-02-05T04:09:40.209Z,-2.30
2018-02-05T04:12:07.668Z,-2.30
2018-02-05T04:14:35.139Z,-2.30
2018-02-05T04:17:02.616Z,-2.30
2018-02-05T04:19:30.092Z,-2.30
2018-02-05T04:21:57.590Z,-2.30
2018-02-05T04:24:25.103Z,-2.40
2018-02-05T04:26:52.940Z,-2.40
2018-02-05T04:29:20.478Z,-2.50
2018-02-05T04:31:47.954Z,-2.50
2018-02-05T04:34:15.448Z,-2.40
2018-02-05T04:36:42.909Z,-2.40
2018-02-05T04:39:10.395Z,-2.40
2018-02-05T04:41:38.625Z,-2.30
2018-02-05T04:44:06.434Z,-2.30
2018-02-05T04:46:33.914Z,-2.40
2018-02-05T04:49:01.393Z,-2.50
2018-02-05T04:51:28.857Z,-2.60
2018-02-05T04:53:56.413Z,-2.50
2018-02-05T04:56:23.941Z,-2.50
2018-02-05T04:58:51.429Z,-2.50
2018-02-05T05:01:18.896Z,-2.40
2018-02-05T05:03:49.440Z,-2.40
2018-02-05T05:06:16.909Z,-2.40
2018-02-05T05:08:45.044Z,-2.40
2018-02-05T05:11:12.501Z,-2.50
2018-02-05T05:13:39.965Z,-2.50
2018-02-05T05:16:07.447Z,-2.50
2018-02-05T05:18:34.915Z,-2.50
2018-02-05T05:21:03.172Z,-2.50
2018-02-05T05:23:30.653Z,-2.50
2018-02-05T05:25:59.361Z,-2.50
2018-02-05T05:28:26.810Z,-2.40
2018-02-05T05:30:54.281Z,-2.20
2018-02-05T05:33:21.756Z,-2.30
2018-02-05T05:35:49.217Z,-2.30
2018-02-05T05:38:16.755Z,-2.40
2018-02-05T05:40:44.367Z,-2.40
2018-02-05T05:43:12.481Z,-2.40
2018-02-05T05:45:39.985Z,-2.40
2018-02-05T05:48:07.450Z,-2.50
2018-02-05T05:50:35.080Z,-2.40
2018-02-05T05:53:02.553Z,-2.50
2018-02-05T05:55:30.046Z,-2.50
2018-02-05T05:57:57.500Z,-2.50
2018-02-05T06:00:25.096Z,-2.40
2018-02-05T06:02:52.524Z,-2.40
2018-02-05T06:05:21.694Z,-2.40
2018-02-05T06:07:49.401Z,-2.40
2018-02-05T06:10:16.882Z,-2.40
2018-02-05T06:12:44.373Z,-2.50
2018-02-05T06:15:11.874Z,-2.50
2018-02-05T06:17:40.019Z,-2.50
2018-02-05T06:20:12.458Z,-2.40
2018-02-05T06:22:40.514Z,-2.50
2018-02-05T06:25:08.020Z,-2.50
2018-02-05T06:27:35.516Z,-2.50
2018-02-05T06:30:03.024Z,-2.40
2018-02-05T06:32:30.515Z,-2.30
2018-02-05T06:35:03.212Z,-2.10
2018-02-05T06:37:30.681Z,-2.10
2018-02-05T06:39:58.189Z,-1.90
2018-02-05T06:42:26.567Z,-1.90
2018-02-05T06:44:54.238Z,-1.90
2018-02-05T06:47:22.505Z,-1.80
2018-02-05T06:49:49.972Z,-1.90
2018-02-05T06:52:30.165Z,-1.80
2018-02-05T06:55:09.257Z,-1.80
2018-02-05T06:57:36.710Z,-1.90
2018-02-05T07:00:04.157Z,-2.00
2018-02-05T07:02:32.442Z,-2.00
2018-02-05T07:05:00.661Z,-1.90
2018-02-05T07:07:28.124Z,-1.90
2018-02-05T07:09:55.595Z,-2.00
2018-02-05T07:12:23.062Z,-2.10
2018-02-05T07:14:52.291Z,-2.00
2018-02-05T07:17:19.737Z,-2.00
2018-02-05T07:19:48.096Z,-1.90
2018-02-05T07:22:17.009Z,-2.00
2018-02-05T07:24:44.465Z,-2.00
2018-02-05T07:27:11.931Z,-2.00
2018-02-05T07:29:41.081Z,-2.00
2018-02-05T07:32:08.790Z,-2.00
2018-02-05T07:34:36.542Z,-1.80
2018-02-05T07:37:07.999Z,-1.80
2018-02-05T07:39:35.654Z,-1.80
2018-02-05T07:42:03.164Z,-1.80
2018-02-05T07:44:30.676Z,-1.80
2018-02-05T07:46:58.230Z,-1.60
2018-02-05T07:49:25.761Z,-1.60
2018-02-05T07:51:56.708Z,-1.40
2018-02-05T07:54:24.163Z,-1.20
2018-02-05T07:56:51.653Z,-1.10
2018-02-05T07:59:19.761Z,-1.10
2018-02-05T08:01:47.268Z,-1.00
2018-02-05T08:04:14.733Z,-0.90
2018-02-05T08:06:46.393Z,-0.70
2018-02-05T08:09:14.727Z,-0.70
2018-02-05T08:11:42.184Z,-0.70
2018-02-05T08:14:09.694Z,-0.60
2018-02-05T08:16:37.151Z,-0.60
2018-02-05T08:19:04.609Z,-0.50
2018-02-05T08:21:32.089Z,-0.30
2018-02-05T08:23:59.548Z,-0.20
2018-02-05T08:26:27.028Z,-0.20
2018-02-05T08:28:54.508Z,-0.10
2018-02-05T08:31:21.967Z,0.00
2018-02-05T08:33:49.591Z,0.00
2018-02-05T08:36:18.633Z,-0.10
2018-02-05T08:38:46.174Z,-0.10
2018-02-05T08:41:13.624Z,-0.10
2018-02-05T08:43:41.117Z,-0.10
2018-02-05T08:46:09.348Z,-0.10
2018-02-05T08:48:36.808Z,-0.10
2018-02-05T08:51:04.592Z,-0.10
2018-02-05T08:53:36.270Z,0.00
2018-02-05T08:56:03.704Z,0.00
2018-02-05T08:58:31.654Z,0.10
2018-02-05T09:00:59.328Z,0.20
2018-02-05T09:03:26.791Z,0.20
2018-02-05T09:05:54.292Z,0.30
2018-02-05T09:08:21.765Z,0.40
2018-02-05T09:10:49.265Z,0.40
2018-02-05T09:13:16.754Z,0.40
2018-02-05T09:15:45.890Z,0.50
2018-02-05T09:18:13.954Z,0.50
2018-02-05T09:20:41.405Z,0.60
2018-02-05T09:23:08.904Z,0.60
2018-02-05T09:25:37.904Z,0.70
2018-02-05T09:28:05.360Z,0.70
2018-02-05T09:30:32.821Z,0.80
2018-02-05T09:33:00.332Z,0.90
2018-02-05T09:35:27.780Z,0.90
2018-02-05T09:37:59.818Z,0.90
2018-02-05T09:40:27.304Z,1.00
2018-02-05T09:42:54.759Z,1.10
2018-02-05T09:45:22.355Z,1.20
2018-02-05T09:47:49.821Z,1.30
2018-02-05T09:50:17.272Z,1.40
2018-02-05T09:52:44.788Z,1.40
2018-02-05T09:55:12.913Z,1.40
2018-02-05T09:57:40.385Z,1.50
2018-02-05T10:00:08.023Z,1.50
2018-02-05T10:02:35.460Z,1.60
2018-02-05T10:05:03.021Z,1.60
2018-02-05T10:07:30.476Z,1.70
2018-02-05T10:09:57.956Z,1.80
2018-02-05T10:12:25.424Z,1.80
2018-02-05T10:14:52.955Z,1.90
2018-02-05T10:17:20.394Z,1.90
2018-02-05T10:19:47.876Z,1.90
2018-02-05T10:22:15.948Z,2.00
2018-02-05T10:24:47.297Z,2.00
2018-02-05T10:27:14.749Z,2.10
2018-02-05T10:29:42.216Z,2.20
2018-02-05T10:32:09.677Z,2.30
2018-02-05T10:34:37.135Z,2.20
2018-02-05T10:37:05.624Z,2.20
2018-02-05T10:39:36.052Z,2.30
2018-02-05T10:42:03.537Z,2.30
2018-02-05T10:44:30.990Z,2.30
2018-02-05T10:46:58.450Z,2.40
2018-02-05T10:49:25.941Z,2.50
2018-02-05T10:51:53.414Z,2.40
2018-02-05T10:54:24.153Z,2.50
2018-02-05T10:56:51.603Z,2.50
2018-02-05T10:59:20.869Z,2.60
2018-02-05T11:01:48.309Z,2.60
2018-02-05T11:04:16.557Z,2.50
2018-02-05T11:06:44.540Z,2.60
2018-02-05T11:09:12.012Z,2.60
2018-02-05T11:11:39.592Z,2.50
2018-02-05T11:14:07.225Z,2.50
2018-02-05T11:16:34.656Z,2.40
2018-02-05T11:19:02.269Z,2.50
2018-02-05T11:21:29.790Z,2.50
2018-02-05T11:23:58.023Z,2.50
2018-02-05T11:26:25.469Z,2.50
2018-02-05T11:28:53.021Z,2.50
2018-02-05T11:31:20.501Z,2.50
2018-02-05T11:33:47.969Z,2.60
2018-02-05T11:36:15.487Z,2.70
2018-02-05T11:38:42.966Z,2.70
2018-02-05T11:41:10.454Z,2.70
2018-02-05T11:43:37.938Z,2.80
2018-02-05T11:46:05.392Z,2.80
2018-02-05T11:48:32.896Z,2.80
2018-02-05T11:51:01.810Z,2.90
2018-02-05T11:53:29.293Z,2.90
2018-02-05T11:56:01.439Z,3.00
2018-02-05T11:58:28.908Z,2.90
2018-02-05T12:00:57.170Z,2.90
2018-02-05T12:03:24.627Z,2.90
2018-02-05T12:05:52.076Z,3.00
2018-02-05T12:08:19.528Z,3.10
2018-02-05T12:10:46.992Z,3.20
2018-02-05T12:13:14.982Z,3.20
2018-02-05T12:15:42.519Z,3.10
2018-02-05T12:18:09.962Z,3.00
2018-02-05T12:20:37.542Z,2.80
2018-02-05T12:23:05.412Z,2.80
2018-02-05T12:25:33.884Z,2.80
2018-02-05T12:28:02.868Z,2.80
2018-02-05T12:30:30.352Z,2.70
2018-02-05T12:32:59.492Z,2.90
2018-02-05T12:35:26.954Z,2.80
2018-02-05T12:37:54.423Z,2.90
2018-02-05T12:40:24.136Z,3.00
2018-02-05T12:42:51.604Z,3.00
2018-02-05T12:45:19.095Z,3.00
2018-02-05T12:47:46.575Z,3.10
2018-02-05T12:50:14.032Z,3.10
2018-02-05T12:52:41.504Z,3.20
2018-02-05T12:55:08.991Z,3.20
2018-02-05T12:57:42.023Z,3.20
2018-02-05T13:03:38.384Z,3.20
2018-02-05T13:06:12.206Z,3.10
2018-02-05T13:08:39.680Z,3.10
2018-02-05T13:11:07.131Z,3.10
2018-02-05T13:13:34.668Z,3.20
2018-02-05T13:16:03.836Z,3.40
2018-02-05T13:18:31.501Z,3.40
2018-02-05T13:20:58.997Z,3.40
2018-02-05T13:23:26.460Z,3.40
2018-02-05T13:25:54.755Z,3.10
2018-02-05T13:28:26.100Z,3.00
2018-02-05T13:30:53.545Z,2.90
2018-02-05T13:33:21.246Z,3.00
2018-02-05T13:35:48.692Z,3.00
2018-02-05T13:38:17.097Z,2.90
2018-02-05T13:40:44.867Z,2.90
2018-02-05T13:43:12.390Z,2.90
2018-02-05T13:45:39.860Z,2.80
2018-02-05T13:48:07.329Z,2.80
2018-02-05T13:50:34.804Z,2.80
2018-02-05T13:53:03.012Z,2.80
2018-02-05T13:55:30.487Z,2.80
2018-02-05T13:57:58.090Z,2.70
2018-02-05T14:00:26.301Z,2.60
2018-02-05T14:02:53.812Z,2.60
2018-02-05T14:05:21.416Z,2.60
2018-02-05T14:07:50.562Z,2.80
2018-02-05T14:10:18.052Z,2.70
2018-02-05T14:12:55.080Z,2.80
2018-02-05T14:15:22.753Z,2.90
2018-02-05T14:17:51.161Z,2.80
2018-02-05T14:20:18.634Z,2.80
2018-02-05T14:22:46.138Z,2.70
2018-02-05T14:25:13.608Z,2.70
2018-02-05T14:27:41.073Z,2.60
2018-02-05T14:30:08.654Z,2.50
2018-02-05T14:32:36.188Z,2.50
2018-02-05T14:35:05.346Z,2.40
2018-02-05T14:37:32.791Z,2.40
2018-02-05T14:40:00.325Z,2.40
2018-02-05T14:42:27.797Z,2.40
2018-02-05T14:44:55.233Z,2.40
2018-02-05T14:47:22.764Z,2.40
2018-02-05T14:49:50.201Z,2.30
2018-02-05T14:52:18.604Z,2.30
2018-02-05T14:54:46.043Z,2.30
2018-02-05T14:57:13.550Z,2.30
2018-02-05T14:59:40.988Z,2.30
2018-02-05T15:02:08.536Z,2.20
2018-02-05T15:04:36.012Z,2.20
2018-02-05T15:07:06.376Z,2.10
2018-02-05T15:09:33.906Z,2.10
2018-02-05T15:12:01.348Z,2.00
2018-02-05T15:14:28.800Z,2.00
2018-02-05T15:16:57.329Z,2.00
2018-02-05T15:19:24.761Z,2.00
2018-02-05T15:21:52.222Z,2.00
2018-02-05T15:24:20.815Z,2.10
2018-02-05T15:26:48.242Z,2.00
2018-02-05T15:29:20.301Z,2.00
2018-02-05T15:31:47.756Z,1.90
2018-02-05T15:34:15.216Z,1.90
2018-02-05T15:36:42.684Z,1.90
2018-02-05T15:39:11.832Z,1.80
2018-02-05T15:41:39.440Z,1.80
2018-02-05T15:44:10.117Z,1.80
2018-02-05T15:46:37.708Z,1.80
2018-02-05T15:49:06.672Z,1.60
2018-02-05T15:51:34.169Z,1.60
2018-02-05T15:54:02.232Z,1.60
2018-02-05T15:56:32.105Z,1.50
2018-02-05T15:58:59.731Z,1.60
2018-02-05T16:01:27.994Z,1.50
2018-02-05T16:03:55.484Z,1.50
2018-02-05T16:06:22.950Z,1.40
2018-02-05T16:08:50.692Z,1.30
2018-02-05T16:11:18.235Z,1.20
2018-02-05T16:13:45.738Z,1.10
2018-02-05T16:16:13.176Z,1.00
2018-02-05T16:18:40.668Z,0.90
2018-02-05T16:21:08.662Z,0.80
2018-02-05T16:23:36.117Z,0.80
2018-02-05T16:26:03.597Z,0.70
2018-02-05T16:28:31.844Z,0.60
2018-02-05T16:30:59.483Z,0.60
2018-02-05T16:33:26.959Z,0.60
2018-02-05T16:35:54.432Z,0.60
2018-02-05T16:38:22.812Z,0.50
2018-02-05T16:40:50.310Z,0.50
2018-02-05T16:43:17.754Z,0.40
2018-02-05T16:45:45.184Z,0.40
2018-02-05T16:48:13.271Z,0.40
2018-02-05T16:50:42.213Z,0.40
2018-02-05T16:53:09.731Z,0.30
2018-02-05T16:55:37.185Z,0.30
2018-02-05T17:00:55.493Z,0.30
2018-02-05T17:03:33.511Z,0.20
2018-02-05T17:06:03.571Z,0.20
2018-02-05T17:08:31.828Z,0.10
2018-02-05T17:10:59.513Z,0.10
2018-02-05T17:13:26.981Z,0.10
2018-02-05T17:16:01.788Z,0.10
2018-02-05T17:18:29.298Z,0.10
2018-02-05T17:20:56.970Z,0.10
2018-02-05T17:23:24.678Z,0.00
2018-02-05T17:25:52.479Z,0.00
2018-02-05T17:28:19.983Z,0.00
2018-02-05T17:30:47.433Z,-0.10
2018-02-05T17:33:26.232Z,-0.20
2018-02-05T17:35:54.257Z,-0.20
2018-02-05T17:38:21.752Z,-0.20
2018-02-05T17:40:49.288Z,-0.20
2018-02-05T17:43:17.651Z,-0.30
2018-02-05T17:45:45.312Z,-0.30
2018-02-05T17:48:12.816Z,-0.20
2018-02-05T17:50:40.272Z,-0.30
2018-02-05T17:53:07.778Z,-0.40
2018-02-05T17:55:35.278Z,-0.50
2018-02-05T17:58:02.737Z,-0.60
2018-02-05T18:00:31.188Z,-0.70
2018-02-05T18:03:01.575Z,-0.80
2018-02-05T18:05:29.052Z,-0.80
2018-02-05T18:07:56.579Z,-0.60
2018-02-05T18:10:24.041Z,-0.70
2018-02-05T18:12:51.488Z,-0.70
2018-02-05T18:15:20.269Z,-0.70
2018-02-05T18:17:47.717Z,-0.80
2018-02-05T18:20:15.615Z,-0.70
2018-02-05T18:22:43.606Z,-0.80
2018-02-05T18:25:11.170Z,-0.90
2018-02-05T18:27:38.884Z,-0.90
2018-02-05T18:30:06.360Z,-1.00
2018-02-05T18:32:35.363Z,-1.10
2018-02-05T18:35:02.875Z,-1.10
2018-02-05T18:37:30.393Z,-1.20
2018-02-05T18:39:58.810Z,-1.10
2018-02-05T18:42:26.257Z,-1.10
2018-02-05T18:44:53.723Z,-1.20
2018-02-05T18:47:24.766Z,-1.30
2018-02-05T18:49:52.768Z,-1.40
2018-02-05T18:52:20.273Z,-1.40
2018-02-05T18:54:48.372Z,-1.50
2018-02-05T18:57:15.832Z,-1.50
2018-02-05T18:59:43.312Z,-1.40
2018-02-05T19:02:25.197Z,-1.50
2018-02-05T19:04:52.817Z,-1.50
2018-02-05T19:07:20.970Z,-1.50
2018-02-05T19:09:48.513Z,-1.50
2018-02-05T19:12:16.332Z,-1.60
2018-02-05T19:14:44.344Z,-1.50
2018-02-05T19:17:11.806Z,-1.60
2018-02-05T19:19:39.437Z,-1.60
2018-02-05T19:22:07.161Z,-1.60
2018-02-05T19:24:34.750Z,-1.70
2018-02-05T19:27:02.330Z,-1.80
2018-02-05T19:29:30.286Z,-1.80
2018-02-05T19:31:58.105Z,-1.90
2018-02-05T19:34:29.757Z,-1.90
2018-02-05T19:36:57.229Z,-1.90
2018-02-05T19:39:24.801Z,-2.00
2018-02-05T19:41:54.313Z,-2.10
2018-02-05T19:44:21.859Z,-2.10
2018-02-05T19:46:50.728Z,-2.00
2018-02-05T19:49:28.317Z,-2.10
2018-02-05T19:51:55.807Z,-2.20
2018-02-05T19:54:24.102Z,-2.20
2018-02-05T19:56:51.581Z,-2.20
2018-02-05T19:59:19.092Z,-2.20
2018-02-05T20:01:46.572Z,-2.20
2018-02-05T20:04:14.281Z,-2.20
2018-02-05T20:06:42.864Z,-2.30
2018-02-05T20:09:10.390Z,-2.40
2018-02-05T20:11:38.056Z,-2.40
2018-02-05T20:14:05.543Z,-2.40
2018-02-05T20:16:33.068Z,-2.40
2018-02-05T20:19:08.433Z,-2.30
2018-02-05T20:21:35.915Z,-2.40
2018-02-05T20:24:04.291Z,-2.40
2018-02-05T20:26:31.806Z,-2.50
2018-02-05T20:29:00.479Z,-2.50
2018-02-05T20:31:28.877Z,-2.60
2018-02-05T20:33:56.395Z,-2.50
2018-02-05T20:36:23.970Z,-2.50
2018-02-05T20:38:52.340Z,-2.60
2018-02-05T20:41:50.056Z,-2.50
2018-02-05T20:44:17.553Z,-2.50
2018-02-05T20:50:08.804Z,-2.40
2018-02-05T20:52:37.062Z,-2.40
2018-02-05T20:55:06.967Z,-2.50
2018-02-05T20:57:35.701Z,-2.50
2018-02-05T21:00:03.349Z,-2.40
2018-02-05T21:02:30.788Z,-2.30
2018-02-05T21:04:59.075Z,-2.30
2018-02-05T21:07:27.366Z,-2.30
2018-02-05T21:09:55.679Z,-2.30
2018-02-05T21:12:23.348Z,-2.30
2018-02-05T21:14:50.856Z,-2.10
2018-02-05T21:17:18.332Z,-1.90
2018-02-05T21:19:45.793Z,-1.70
2018-02-05T21:22:14.097Z,-1.60
2018-02-05T21:24:41.537Z,-1.60
2018-02-05T21:27:09.299Z,-1.60
2018-02-05T21:29:37.144Z,-1.60
2018-02-05T21:32:04.648Z,-1.70
2018-02-05T21:34:32.470Z,-1.60
2018-02-05T21:37:00.690Z,-1.50
2018-02-05T21:39:28.220Z,-1.50
2018-02-05T21:41:55.700Z,-1.60
2018-02-05T21:44:23.146Z,-1.60
2018-02-05T21:46:50.662Z,-1.60
2018-02-05T21:49:18.101Z,-1.50
2018-02-05T21:51:47.247Z,-1.40
2018-02-05T21:54:14.818Z,-1.50
2018-02-05T21:56:42.302Z,-1.50
2018-02-05T21:59:13.780Z,-1.50
2018-02-05T22:01:41.778Z,-1.50
2018-02-05T22:04:09.219Z,-1.60
2018-02-05T22:06:36.673Z,-1.60
2018-02-05T22:09:04.171Z,-1.60
2018-02-05T22:11:32.593Z,-1.50
2018-02-05T22:14:00.041Z,-1.60
2018-02-05T22:16:31.813Z,-1.60
2018-02-05T22:18:59.290Z,-1.70
2018-02-05T22:21:26.828Z,-1.70
2018-02-05T22:23:55.076Z,-1.80
2018-02-05T22:26:22.546Z,-1.80
2018-02-05T22:28:50.705Z,-1.90
2018-02-05T22:31:18.173Z,-1.90
2018-02-05T22:33:45.634Z,-1.90
2018-02-05T22:36:13.146Z,-1.90
2018-02-05T22:38:40.605Z,-1.90
2018-02-05T22:41:08.054Z,-2.10
2018-02-05T22:43:35.537Z,-2.10
2018-02-05T22:46:07.737Z,-2.00
2018-02-05T22:48:35.200Z,-2.10
2018-02-05T22:51:02.653Z,-2.20
2018-02-05T22:53:30.329Z,-2.30
2018-02-05T22:55:57.860Z,-2.20
2018-02-05T22:58:25.308Z,-2.20
2018-02-05T23:00:53.708Z,-2.00
2018-02-05T23:03:21.226Z,-1.90
2018-02-05T23:05:48.690Z,-2.00
2018-02-05T23:08:16.164Z,-2.10
2018-02-05T23:10:43.663Z,-2.10
2018-02-05T23:13:11.152Z,-2.20
2018-02-05T23:15:38.606Z,-2.20
2018-02-05T23:18:06.084Z,-2.20
2018-02-05T23:20:33.555Z,-2.30
2018-02-05T23:23:01.786Z,-2.10
2018-02-05T23:25:29.225Z,-2.10
2018-02-05T23:27:56.768Z,-2.10
2018-02-05T23:30:24.212Z,-2.20
2018-02-05T23:32:51.686Z,-2.40
2018-02-05T23:35:19.904Z,-2.60
2018-02-05T23:37:47.375Z,-2.60
2018-02-05T23:40:16.080Z,-2.70
2018-02-05T23:42:43.565Z,-2.70
2018-02-05T23:45:11.028Z,-2.60
2018-02-05T23:47:42.156Z,-2.70
2018-02-05T23:50:09.618Z,-2.70
2018-02-05T23:52:37.361Z,-2.60
2018-02-05T23:55:06.052Z,-2.60
2018-02-05T23:57:33.512Z,-2.60
